sensor_id;sensor_type;location;lat;lon;timestamp;P1;durP1;ratioP1;P2;durP2;ratioP2
62861;SDS011;48953;53.110;5.592;2023-12-14T00:00:33;9.65;;;5.50;;
62861;SDS011;48953;53.110;5.592;2023-12-14T00:02:59;13.65;;;4.63;;
62861;SDS011;48953;53.110;5.592;2023-12-14T00:05:25;8.10;;;5.13;;
62861;SDS011;48953;53.110;5.592;2023-12-14T00:07:51;9.75;;;5.22;;
62861;SDS011;48953;53.110;5.592;2023-12-14T00:10:17;11.40;;;5.32;;
62861;SDS011;48953;53.110;5.592;2023-12-14T00:12:43;14.48;;;5.43;;
62861;SDS011;48953;53.110;5.592;2023-12-14T00:15:09;10.80;;;5.00;;
62861;SDS011;48953;53.110;5.592;2023-12-14T00:17:35;10.77;;;4.63;;
62861;SDS011;48953;53.110;5.592;2023-12-14T00:20:02;7.55;;;4.72;;
62861;SDS011;48953;53.110;5.592;2023-12-14T00:22:28;7.97;;;4.22;;
62861;SDS011;48953;53.110;5.592;2023-12-14T00:24:54;10.27;;;4.78;;
62861;SDS011;48953;53.110;5.592;2023-12-14T00:27:20;11.95;;;4.97;;
62861;SDS011;48953;53.110;5.592;2023-12-14T00:29:46;12.73;;;5.72;;
62861;SDS011;48953;53.110;5.592;2023-12-14T00:32:12;12.55;;;5.97;;
62861;SDS011;48953;53.110;5.592;2023-12-14T00:34:38;10.48;;;5.28;;
62861;SDS011;48953;53.110;5.592;2023-12-14T00:37:05;9.10;;;4.47;;
62861;SDS011;48953;53.110;5.592;2023-12-14T00:39:31;12.32;;;5.43;;
62861;SDS011;48953;53.110;5.592;2023-12-14T00:41:57;9.60;;;5.40;;
62861;SDS011;48953;53.110;5.592;2023-12-14T00:44:23;10.13;;;4.90;;
62861;SDS011;48953;53.110;5.592;2023-12-14T00:46:49;11.00;;;5.22;;
62861;SDS011;48953;53.110;5.592;2023-12-14T00:49:15;10.32;;;5.00;;
62861;SDS011;48953;53.110;5.592;2023-12-14T00:51:43;8.05;;;3.95;;
62861;SDS011;48953;53.110;5.592;2023-12-14T00:54:09;12.43;;;4.30;;
62861;SDS011;48953;53.110;5.592;2023-12-14T00:56:35;11.07;;;5.18;;
62861;SDS011;48953;53.110;5.592;2023-12-14T00:59:01;8.38;;;3.47;;
62861;SDS011;48953;53.110;5.592;2023-12-14T01:01:27;7.22;;;3.85;;
62861;SDS011;48953;53.110;5.592;2023-12-14T01:03:53;10.70;;;4.78;;
62861;SDS011;48953;53.110;5.592;2023-12-14T01:06:19;9.43;;;4.60;;
62861;SDS011;48953;53.110;5.592;2023-12-14T01:08:45;9.25;;;4.47;;
62861;SDS011;48953;53.110;5.592;2023-12-14T01:11:11;15.20;;;5.38;;
62861;SDS011;48953;53.110;5.592;2023-12-14T01:13:37;7.28;;;3.58;;
62861;SDS011;48953;53.110;5.592;2023-12-14T01:16:04;4.97;;;3.08;;
62861;SDS011;48953;53.110;5.592;2023-12-14T01:18:30;8.48;;;4.13;;
62861;SDS011;48953;53.110;5.592;2023-12-14T01:20:56;8.77;;;4.28;;
62861;SDS011;48953;53.110;5.592;2023-12-14T01:23:22;10.98;;;4.13;;
62861;SDS011;48953;53.110;5.592;2023-12-14T01:25:48;7.38;;;4.57;;
62861;SDS011;48953;53.110;5.592;2023-12-14T01:28:14;9.52;;;4.15;;
62861;SDS011;48953;53.110;5.592;2023-12-14T01:30:40;8.63;;;4.53;;
62861;SDS011;48953;53.110;5.592;2023-12-14T01:33:06;11.35;;;4.85;;
62861;SDS011;48953;53.110;5.592;2023-12-14T01:35:32;10.48;;;6.00;;
62861;SDS011;48953;53.110;5.592;2023-12-14T01:37:58;7.97;;;5.18;;
62861;SDS011;48953;53.110;5.592;2023-12-14T01:40:24;9.70;;;5.15;;
62861;SDS011;48953;53.110;5.592;2023-12-14T01:42:50;9.70;;;5.10;;
62861;SDS011;48953;53.110;5.592;2023-12-14T01:45:16;6.63;;;4.57;;
62861;SDS011;48953;53.110;5.592;2023-12-14T01:47:43;8.43;;;4.82;;
62861;SDS011;48953;53.110;5.592;2023-12-14T01:50:10;7.45;;;4.30;;
62861;SDS011;48953;53.110;5.592;2023-12-14T01:52:36;11.23;;;4.50;;
62861;SDS011;48953;53.110;5.592;2023-12-14T01:55:02;10.27;;;5.38;;
62861;SDS011;48953;53.110;5.592;2023-12-14T01:57:28;7.60;;;4.50;;
62861;SDS011;48953;53.110;5.592;2023-12-14T01:59:54;9.60;;;5.57;;
62861;SDS011;48953;53.110;5.592;2023-12-14T02:02:20;8.57;;;5.40;;
62861;SDS011;48953;53.110;5.592;2023-12-14T02:04:46;10.98;;;5.57;;
62861;SDS011;48953;53.110;5.592;2023-12-14T02:07:12;9.25;;;5.63;;
62861;SDS011;48953;53.110;5.592;2023-12-14T02:09:38;9.30;;;4.90;;
62861;SDS011;48953;53.110;5.592;2023-12-14T02:12:04;9.90;;;5.25;;
62861;SDS011;48953;53.110;5.592;2023-12-14T02:14:30;8.93;;;4.93;;
62861;SDS011;48953;53.110;5.592;2023-12-14T02:16:56;8.75;;;4.22;;
62861;SDS011;48953;53.110;5.592;2023-12-14T02:19:22;11.55;;;5.28;;
62861;SDS011;48953;53.110;5.592;2023-12-14T02:21:48;9.25;;;5.28;;
62861;SDS011;48953;53.110;5.592;2023-12-14T02:24:15;10.05;;;5.13;;
62861;SDS011;48953;53.110;5.592;2023-12-14T02:26:42;10.15;;;5.20;;
62861;SDS011;48953;53.110;5.592;2023-12-14T02:29:08;10.90;;;6.05;;
62861;SDS011;48953;53.110;5.592;2023-12-14T02:31:34;10.70;;;5.35;;
62861;SDS011;48953;53.110;5.592;2023-12-14T02:34:00;11.68;;;5.72;;
62861;SDS011;48953;53.110;5.592;2023-12-14T02:36:25;10.52;;;5.15;;
62861;SDS011;48953;53.110;5.592;2023-12-14T02:38:52;12.18;;;5.45;;
62861;SDS011;48953;53.110;5.592;2023-12-14T02:41:18;9.80;;;5.68;;
62861;SDS011;48953;53.110;5.592;2023-12-14T02:43:44;13.80;;;5.30;;
62861;SDS011;48953;53.110;5.592;2023-12-14T02:46:10;9.25;;;5.28;;
62861;SDS011;48953;53.110;5.592;2023-12-14T02:48:40;11.57;;;6.10;;
62861;SDS011;48953;53.110;5.592;2023-12-14T02:51:07;10.52;;;5.60;;
62861;SDS011;48953;53.110;5.592;2023-12-14T02:53:33;10.82;;;5.78;;
62861;SDS011;48953;53.110;5.592;2023-12-14T02:56:02;12.02;;;5.97;;
62861;SDS011;48953;53.110;5.592;2023-12-14T02:58:28;11.20;;;6.00;;
62861;SDS011;48953;53.110;5.592;2023-12-14T03:00:54;12.27;;;6.30;;
62861;SDS011;48953;53.110;5.592;2023-12-14T03:03:20;10.45;;;5.40;;
62861;SDS011;48953;53.110;5.592;2023-12-14T03:05:46;11.68;;;5.45;;
62861;SDS011;48953;53.110;5.592;2023-12-14T03:08:14;11.82;;;5.68;;
62861;SDS011;48953;53.110;5.592;2023-12-14T03:10:40;11.02;;;5.75;;
62861;SDS011;48953;53.110;5.592;2023-12-14T03:13:06;12.52;;;6.10;;
62861;SDS011;48953;53.110;5.592;2023-12-14T03:15:32;11.93;;;6.72;;
62861;SDS011;48953;53.110;5.592;2023-12-14T03:17:58;15.20;;;6.85;;
62861;SDS011;48953;53.110;5.592;2023-12-14T03:20:24;11.55;;;6.22;;
62861;SDS011;48953;53.110;5.592;2023-12-14T03:22:50;12.18;;;6.80;;
62861;SDS011;48953;53.110;5.592;2023-12-14T03:25:16;13.52;;;7.13;;
62861;SDS011;48953;53.110;5.592;2023-12-14T03:27:42;15.02;;;7.07;;
62861;SDS011;48953;53.110;5.592;2023-12-14T03:30:08;11.40;;;6.13;;
62861;SDS011;48953;53.110;5.592;2023-12-14T03:32:35;11.98;;;6.68;;
62861;SDS011;48953;53.110;5.592;2023-12-14T03:35:00;14.57;;;6.75;;
62861;SDS011;48953;53.110;5.592;2023-12-14T03:37:27;12.32;;;6.28;;
62861;SDS011;48953;53.110;5.592;2023-12-14T03:39:53;15.60;;;7.22;;
62861;SDS011;48953;53.110;5.592;2023-12-14T03:42:19;15.55;;;7.03;;
62861;SDS011;48953;53.110;5.592;2023-12-14T03:44:45;11.43;;;5.82;;
62861;SDS011;48953;53.110;5.592;2023-12-14T03:47:11;15.00;;;6.68;;
62861;SDS011;48953;53.110;5.592;2023-12-14T03:49:40;14.70;;;7.57;;
62861;SDS011;48953;53.110;5.592;2023-12-14T03:52:06;14.15;;;7.13;;
62861;SDS011;48953;53.110;5.592;2023-12-14T03:54:32;13.73;;;7.13;;
62861;SDS011;48953;53.110;5.592;2023-12-14T03:56:58;15.38;;;7.28;;
62861;SDS011;48953;53.110;5.592;2023-12-14T03:59:24;17.58;;;7.95;;
62861;SDS011;48953;53.110;5.592;2023-12-14T04:01:50;12.57;;;6.72;;
62861;SDS011;48953;53.110;5.592;2023-12-14T04:04:16;14.27;;;7.18;;
62861;SDS011;48953;53.110;5.592;2023-12-14T04:06:42;14.55;;;6.60;;
62861;SDS011;48953;53.110;5.592;2023-12-14T04:09:08;14.60;;;6.63;;
62861;SDS011;48953;53.110;5.592;2023-12-14T04:11:35;19.65;;;7.47;;
62861;SDS011;48953;53.110;5.592;2023-12-14T04:14:01;20.05;;;8.07;;
62861;SDS011;48953;53.110;5.592;2023-12-14T04:16:27;16.23;;;7.57;;
62861;SDS011;48953;53.110;5.592;2023-12-14T04:18:53;17.85;;;7.30;;
62861;SDS011;48953;53.110;5.592;2023-12-14T04:21:19;12.23;;;6.70;;
62861;SDS011;48953;53.110;5.592;2023-12-14T04:23:45;15.73;;;6.78;;
62861;SDS011;48953;53.110;5.592;2023-12-14T04:26:11;15.75;;;7.30;;
62861;SDS011;48953;53.110;5.592;2023-12-14T04:28:38;14.05;;;7.43;;
62861;SDS011;48953;53.110;5.592;2023-12-14T04:31:04;19.25;;;6.88;;
62861;SDS011;48953;53.110;5.592;2023-12-14T04:33:30;14.70;;;7.95;;
62861;SDS011;48953;53.110;5.592;2023-12-14T04:35:57;18.02;;;8.05;;
62861;SDS011;48953;53.110;5.592;2023-12-14T04:38:23;17.65;;;7.90;;
62861;SDS011;48953;53.110;5.592;2023-12-14T04:40:49;14.90;;;7.60;;
62861;SDS011;48953;53.110;5.592;2023-12-14T04:43:15;15.98;;;7.70;;
62861;SDS011;48953;53.110;5.592;2023-12-14T04:45:41;19.30;;;8.40;;
62861;SDS011;48953;53.110;5.592;2023-12-14T04:48:07;19.35;;;8.88;;
62861;SDS011;48953;53.110;5.592;2023-12-14T04:50:33;23.33;;;8.55;;
62861;SDS011;48953;53.110;5.592;2023-12-14T04:52:59;16.73;;;7.65;;
62861;SDS011;48953;53.110;5.592;2023-12-14T04:55:25;21.83;;;8.60;;
62861;SDS011;48953;53.110;5.592;2023-12-14T04:57:51;20.05;;;7.53;;
62861;SDS011;48953;53.110;5.592;2023-12-14T05:00:17;16.40;;;7.88;;
62861;SDS011;48953;53.110;5.592;2023-12-14T05:02:46;22.90;;;9.32;;
62861;SDS011;48953;53.110;5.592;2023-12-14T05:05:13;14.27;;;7.63;;
62861;SDS011;48953;53.110;5.592;2023-12-14T05:07:39;18.90;;;8.43;;
62861;SDS011;48953;53.110;5.592;2023-12-14T05:10:05;19.15;;;7.43;;
62861;SDS011;48953;53.110;5.592;2023-12-14T05:12:31;17.95;;;7.90;;
62861;SDS011;48953;53.110;5.592;2023-12-14T05:14:57;16.35;;;7.72;;
62861;SDS011;48953;53.110;5.592;2023-12-14T05:17:23;20.08;;;7.53;;
62861;SDS011;48953;53.110;5.592;2023-12-14T05:19:49;19.50;;;7.68;;
62861;SDS011;48953;53.110;5.592;2023-12-14T05:22:15;17.55;;;7.75;;
62861;SDS011;48953;53.110;5.592;2023-12-14T05:24:44;16.10;;;8.07;;
62861;SDS011;48953;53.110;5.592;2023-12-14T05:27:10;16.27;;;7.63;;
62861;SDS011;48953;53.110;5.592;2023-12-14T05:29:36;12.60;;;6.85;;
62861;SDS011;48953;53.110;5.592;2023-12-14T05:32:02;16.58;;;7.82;;
62861;SDS011;48953;53.110;5.592;2023-12-14T05:34:28;15.98;;;7.78;;
62861;SDS011;48953;53.110;5.592;2023-12-14T05:36:54;15.20;;;7.75;;
62861;SDS011;48953;53.110;5.592;2023-12-14T05:39:20;15.57;;;7.93;;
62861;SDS011;48953;53.110;5.592;2023-12-14T05:41:46;18.38;;;8.23;;
62861;SDS011;48953;53.110;5.592;2023-12-14T05:44:12;15.70;;;8.00;;
62861;SDS011;48953;53.110;5.592;2023-12-14T05:46:38;16.92;;;8.13;;
62861;SDS011;48953;53.110;5.592;2023-12-14T05:49:04;17.70;;;7.40;;
62861;SDS011;48953;53.110;5.592;2023-12-14T05:51:31;21.00;;;7.88;;
62861;SDS011;48953;53.110;5.592;2023-12-14T05:53:57;17.45;;;8.52;;
62861;SDS011;48953;53.110;5.592;2023-12-14T05:56:24;17.27;;;9.98;;
62861;SDS011;48953;53.110;5.592;2023-12-14T05:58:50;16.73;;;8.05;;
62861;SDS011;48953;53.110;5.592;2023-12-14T06:01:16;18.48;;;8.30;;
62861;SDS011;48953;53.110;5.592;2023-12-14T06:03:43;14.70;;;7.95;;
62861;SDS011;48953;53.110;5.592;2023-12-14T06:06:09;15.30;;;7.22;;
62861;SDS011;48953;53.110;5.592;2023-12-14T06:08:36;17.17;;;7.57;;
62861;SDS011;48953;53.110;5.592;2023-12-14T06:11:03;14.02;;;7.95;;
62861;SDS011;48953;53.110;5.592;2023-12-14T06:13:31;16.00;;;7.68;;
62861;SDS011;48953;53.110;5.592;2023-12-14T06:15:57;16.60;;;7.93;;
62861;SDS011;48953;53.110;5.592;2023-12-14T06:18:23;18.38;;;9.27;;
62861;SDS011;48953;53.110;5.592;2023-12-14T06:20:49;15.60;;;8.10;;
62861;SDS011;48953;53.110;5.592;2023-12-14T06:23:15;16.20;;;7.63;;
62861;SDS011;48953;53.110;5.592;2023-12-14T06:25:41;13.00;;;7.78;;
62861;SDS011;48953;53.110;5.592;2023-12-14T06:28:07;19.05;;;9.20;;
62861;SDS011;48953;53.110;5.592;2023-12-14T06:30:33;18.05;;;7.88;;
62861;SDS011;48953;53.110;5.592;2023-12-14T06:32:59;14.98;;;7.35;;
62861;SDS011;48953;53.110;5.592;2023-12-14T06:35:25;15.00;;;7.90;;
62861;SDS011;48953;53.110;5.592;2023-12-14T06:37:51;16.60;;;7.72;;
62861;SDS011;48953;53.110;5.592;2023-12-14T06:40:17;18.63;;;8.27;;
62861;SDS011;48953;53.110;5.592;2023-12-14T06:42:44;16.42;;;7.95;;
62861;SDS011;48953;53.110;5.592;2023-12-14T06:45:10;19.27;;;8.07;;
62861;SDS011;48953;53.110;5.592;2023-12-14T06:47:36;18.33;;;8.10;;
62861;SDS011;48953;53.110;5.592;2023-12-14T06:50:03;19.30;;;6.95;;
62861;SDS011;48953;53.110;5.592;2023-12-14T06:52:29;17.48;;;7.85;;
62861;SDS011;48953;53.110;5.592;2023-12-14T06:54:55;15.05;;;7.82;;
62861;SDS011;48953;53.110;5.592;2023-12-14T06:57:22;17.73;;;8.52;;
62861;SDS011;48953;53.110;5.592;2023-12-14T06:59:48;17.95;;;8.27;;
62861;SDS011;48953;53.110;5.592;2023-12-14T07:02:14;16.15;;;8.25;;
62861;SDS011;48953;53.110;5.592;2023-12-14T07:04:40;18.40;;;8.30;;
62861;SDS011;48953;53.110;5.592;2023-12-14T07:07:06;12.27;;;6.88;;
62861;SDS011;48953;53.110;5.592;2023-12-14T07:09:32;17.60;;;7.85;;
62861;SDS011;48953;53.110;5.592;2023-12-14T07:11:58;20.27;;;8.38;;
62861;SDS011;48953;53.110;5.592;2023-12-14T07:14:27;14.52;;;7.18;;
62861;SDS011;48953;53.110;5.592;2023-12-14T07:16:53;13.80;;;7.97;;
62861;SDS011;48953;53.110;5.592;2023-12-14T07:19:19;14.88;;;7.68;;
62861;SDS011;48953;53.110;5.592;2023-12-14T07:21:45;16.00;;;8.75;;
62861;SDS011;48953;53.110;5.592;2023-12-14T07:24:11;20.77;;;8.35;;
62861;SDS011;48953;53.110;5.592;2023-12-14T07:26:37;18.40;;;8.35;;
62861;SDS011;48953;53.110;5.592;2023-12-14T07:29:03;14.05;;;7.80;;
62861;SDS011;48953;53.110;5.592;2023-12-14T07:31:29;16.80;;;7.60;;
62861;SDS011;48953;53.110;5.592;2023-12-14T07:33:55;17.38;;;9.27;;
62861;SDS011;48953;53.110;5.592;2023-12-14T07:36:22;17.02;;;9.32;;
62861;SDS011;48953;53.110;5.592;2023-12-14T07:38:48;18.35;;;9.00;;
62861;SDS011;48953;53.110;5.592;2023-12-14T07:41:14;16.92;;;9.27;;
62861;SDS011;48953;53.110;5.592;2023-12-14T07:43:40;12.23;;;7.43;;
62861;SDS011;48953;53.110;5.592;2023-12-14T07:46:06;18.00;;;7.50;;
62861;SDS011;48953;53.110;5.592;2023-12-14T07:48:32;16.58;;;8.48;;
62861;SDS011;48953;53.110;5.592;2023-12-14T07:50:58;16.08;;;8.45;;
62861;SDS011;48953;53.110;5.592;2023-12-14T07:53:24;16.30;;;8.45;;
62861;SDS011;48953;53.110;5.592;2023-12-14T07:55:51;16.05;;;7.63;;
62861;SDS011;48953;53.110;5.592;2023-12-14T07:58:17;13.82;;;7.15;;
62861;SDS011;48953;53.110;5.592;2023-12-14T08:00:43;19.70;;;8.63;;
62861;SDS011;48953;53.110;5.592;2023-12-14T08:03:09;16.48;;;8.02;;
62861;SDS011;48953;53.110;5.592;2023-12-14T08:05:35;16.75;;;7.75;;
62861;SDS011;48953;53.110;5.592;2023-12-14T08:08:01;16.40;;;8.23;;
62861;SDS011;48953;53.110;5.592;2023-12-14T08:10:27;19.52;;;8.75;;
62861;SDS011;48953;53.110;5.592;2023-12-14T08:12:53;19.58;;;7.80;;
62861;SDS011;48953;53.110;5.592;2023-12-14T08:15:19;16.75;;;8.30;;
62861;SDS011;48953;53.110;5.592;2023-12-14T08:17:45;16.52;;;8.95;;
62861;SDS011;48953;53.110;5.592;2023-12-14T08:20:11;17.70;;;8.57;;
62861;SDS011;48953;53.110;5.592;2023-12-14T08:22:38;23.48;;;8.68;;
62861;SDS011;48953;53.110;5.592;2023-12-14T08:25:11;17.25;;;8.48;;
62861;SDS011;48953;53.110;5.592;2023-12-14T08:27:38;14.88;;;7.85;;
62861;SDS011;48953;53.110;5.592;2023-12-14T08:30:04;17.05;;;8.30;;
62861;SDS011;48953;53.110;5.592;2023-12-14T08:32:30;17.45;;;8.68;;
62861;SDS011;48953;53.110;5.592;2023-12-14T08:34:56;21.30;;;8.82;;
62861;SDS011;48953;53.110;5.592;2023-12-14T08:37:22;20.92;;;8.48;;
62861;SDS011;48953;53.110;5.592;2023-12-14T08:39:48;16.27;;;9.23;;
62861;SDS011;48953;53.110;5.592;2023-12-14T08:42:14;18.42;;;9.30;;
62861;SDS011;48953;53.110;5.592;2023-12-14T08:44:40;16.67;;;9.52;;
62861;SDS011;48953;53.110;5.592;2023-12-14T08:47:06;15.75;;;8.98;;
62861;SDS011;48953;53.110;5.592;2023-12-14T08:49:34;16.70;;;8.80;;
62861;SDS011;48953;53.110;5.592;2023-12-14T08:52:00;19.30;;;8.40;;
62861;SDS011;48953;53.110;5.592;2023-12-14T08:54:26;16.48;;;8.50;;
62861;SDS011;48953;53.110;5.592;2023-12-14T08:56:53;16.52;;;9.00;;
62861;SDS011;48953;53.110;5.592;2023-12-14T08:59:19;19.27;;;9.02;;
62861;SDS011;48953;53.110;5.592;2023-12-14T09:01:45;21.65;;;10.05;;
62861;SDS011;48953;53.110;5.592;2023-12-14T09:04:11;18.70;;;9.02;;
62861;SDS011;48953;53.110;5.592;2023-12-14T09:06:38;16.92;;;9.15;;
62861;SDS011;48953;53.110;5.592;2023-12-14T09:09:07;20.48;;;9.52;;
62861;SDS011;48953;53.110;5.592;2023-12-14T09:11:33;17.38;;;9.52;;
62861;SDS011;48953;53.110;5.592;2023-12-14T09:14:01;19.77;;;9.32;;
62861;SDS011;48953;53.110;5.592;2023-12-14T09:16:27;20.33;;;9.68;;
62861;SDS011;48953;53.110;5.592;2023-12-14T09:18:53;17.60;;;9.15;;
62861;SDS011;48953;53.110;5.592;2023-12-14T09:21:19;18.95;;;9.23;;
62861;SDS011;48953;53.110;5.592;2023-12-14T09:23:45;18.55;;;9.02;;
62861;SDS011;48953;53.110;5.592;2023-12-14T09:26:11;16.80;;;9.23;;
62861;SDS011;48953;53.110;5.592;2023-12-14T09:28:37;18.75;;;9.27;;
62861;SDS011;48953;53.110;5.592;2023-12-14T09:31:03;23.13;;;9.88;;
62861;SDS011;48953;53.110;5.592;2023-12-14T09:33:29;18.80;;;9.45;;
62861;SDS011;48953;53.110;5.592;2023-12-14T09:35:55;20.50;;;10.70;;
62861;SDS011;48953;53.110;5.592;2023-12-14T09:38:22;21.50;;;10.10;;
62861;SDS011;48953;53.110;5.592;2023-12-14T09:40:47;25.25;;;9.80;;
62861;SDS011;48953;53.110;5.592;2023-12-14T09:43:13;26.58;;;10.18;;
62861;SDS011;48953;53.110;5.592;2023-12-14T09:45:40;22.23;;;9.63;;
62861;SDS011;48953;53.110;5.592;2023-12-14T09:48:09;22.05;;;9.80;;
62861;SDS011;48953;53.110;5.592;2023-12-14T09:50:36;21.63;;;10.23;;
62861;SDS011;48953;53.110;5.592;2023-12-14T09:53:05;22.60;;;10.10;;
62861;SDS011;48953;53.110;5.592;2023-12-14T09:55:32;19.88;;;9.90;;
62861;SDS011;48953;53.110;5.592;2023-12-14T09:57:58;23.38;;;10.13;;
62861;SDS011;48953;53.110;5.592;2023-12-14T10:00:37;20.95;;;9.93;;
62861;SDS011;48953;53.110;5.592;2023-12-14T10:03:23;18.83;;;8.98;;
62861;SDS011;48953;53.110;5.592;2023-12-14T10:05:51;21.90;;;10.35;;
62861;SDS011;48953;53.110;5.592;2023-12-14T10:08:17;21.73;;;10.15;;
62861;SDS011;48953;53.110;5.592;2023-12-14T10:10:47;20.42;;;10.27;;
62861;SDS011;48953;53.110;5.592;2023-12-14T10:13:14;19.27;;;9.80;;
62861;SDS011;48953;53.110;5.592;2023-12-14T10:15:47;21.35;;;9.73;;
62861;SDS011;48953;53.110;5.592;2023-12-14T10:18:23;19.90;;;9.68;;
62861;SDS011;48953;53.110;5.592;2023-12-14T10:20:50;18.73;;;9.38;;
62861;SDS011;48953;53.110;5.592;2023-12-14T10:23:16;19.45;;;9.70;;
62861;SDS011;48953;53.110;5.592;2023-12-14T10:25:43;18.23;;;8.82;;
62861;SDS011;48953;53.110;5.592;2023-12-14T10:28:13;17.42;;;9.10;;
62861;SDS011;48953;53.110;5.592;2023-12-14T10:30:40;19.45;;;9.57;;
62861;SDS011;48953;53.110;5.592;2023-12-14T10:33:06;15.60;;;8.10;;
62861;SDS011;48953;53.110;5.592;2023-12-14T10:35:33;15.13;;;8.60;;
62861;SDS011;48953;53.110;5.592;2023-12-14T10:38:01;12.30;;;7.28;;
62861;SDS011;48953;53.110;5.592;2023-12-14T10:40:29;14.50;;;8.25;;
62861;SDS011;48953;53.110;5.592;2023-12-14T10:42:55;15.93;;;8.18;;
62861;SDS011;48953;53.110;5.592;2023-12-14T10:45:22;17.98;;;9.10;;
62861;SDS011;48953;53.110;5.592;2023-12-14T10:47:51;17.52;;;8.73;;
62861;SDS011;48953;53.110;5.592;2023-12-14T10:50:17;18.92;;;9.75;;
62861;SDS011;48953;53.110;5.592;2023-12-14T10:52:44;14.27;;;8.02;;
62861;SDS011;48953;53.110;5.592;2023-12-14T10:55:17;14.05;;;7.95;;
62861;SDS011;48953;53.110;5.592;2023-12-14T10:57:45;15.82;;;9.13;;
62861;SDS011;48953;53.110;5.592;2023-12-14T11:00:11;17.48;;;8.38;;
62861;SDS011;48953;53.110;5.592;2023-12-14T11:02:40;15.95;;;8.13;;
62861;SDS011;48953;53.110;5.592;2023-12-14T11:05:08;15.40;;;8.32;;
62861;SDS011;48953;53.110;5.592;2023-12-14T11:10:09;19.33;;;10.30;;
62861;SDS011;48953;53.110;5.592;2023-12-14T11:12:36;18.80;;;9.85;;
62861;SDS011;48953;53.110;5.592;2023-12-14T11:15:06;17.55;;;8.60;;
62861;SDS011;48953;53.110;5.592;2023-12-14T11:17:32;13.82;;;7.80;;
62861;SDS011;48953;53.110;5.592;2023-12-14T11:20:23;14.15;;;7.75;;
62861;SDS011;48953;53.110;5.592;2023-12-14T11:22:46;14.23;;;7.32;;
62861;SDS011;48953;53.110;5.592;2023-12-14T11:25:12;13.10;;;7.35;;
62861;SDS011;48953;53.110;5.592;2023-12-14T11:27:42;14.50;;;7.18;;
62861;SDS011;48953;53.110;5.592;2023-12-14T11:30:10;15.73;;;7.28;;
62861;SDS011;48953;53.110;5.592;2023-12-14T11:32:36;14.10;;;6.72;;
62861;SDS011;48953;53.110;5.592;2023-12-14T11:35:02;10.35;;;6.28;;
62861;SDS011;48953;53.110;5.592;2023-12-14T11:37:28;11.55;;;6.35;;
62861;SDS011;48953;53.110;5.592;2023-12-14T11:39:55;12.45;;;6.28;;
62861;SDS011;48953;53.110;5.592;2023-12-14T11:42:21;15.30;;;6.93;;
62861;SDS011;48953;53.110;5.592;2023-12-14T11:44:47;12.18;;;6.15;;
62861;SDS011;48953;53.110;5.592;2023-12-14T11:47:13;11.80;;;6.20;;
62861;SDS011;48953;53.110;5.592;2023-12-14T11:49:39;10.77;;;6.10;;
62861;SDS011;48953;53.110;5.592;2023-12-14T11:52:05;10.73;;;5.63;;
62861;SDS011;48953;53.110;5.592;2023-12-14T11:54:31;12.30;;;6.70;;
62861;SDS011;48953;53.110;5.592;2023-12-14T11:56:57;12.35;;;7.35;;
62861;SDS011;48953;53.110;5.592;2023-12-14T11:59:23;14.40;;;6.22;;
62861;SDS011;48953;53.110;5.592;2023-12-14T12:01:59;10.57;;;6.40;;
62861;SDS011;48953;53.110;5.592;2023-12-14T12:04:26;11.00;;;6.70;;
62861;SDS011;48953;53.110;5.592;2023-12-14T12:07:02;10.55;;;6.05;;
62861;SDS011;48953;53.110;5.592;2023-12-14T12:12:01;13.57;;;7.32;;
62861;SDS011;48953;53.110;5.592;2023-12-14T12:14:28;10.05;;;5.97;;
62861;SDS011;48953;53.110;5.592;2023-12-14T12:16:54;10.30;;;5.88;;
62861;SDS011;48953;53.110;5.592;2023-12-14T12:19:20;10.68;;;6.72;;
62861;SDS011;48953;53.110;5.592;2023-12-14T12:21:46;10.70;;;6.28;;
62861;SDS011;48953;53.110;5.592;2023-12-14T12:24:12;13.02;;;7.05;;
62861;SDS011;48953;53.110;5.592;2023-12-14T12:26:38;12.68;;;6.40;;
62861;SDS011;48953;53.110;5.592;2023-12-14T12:29:04;10.38;;;5.70;;
62861;SDS011;48953;53.110;5.592;2023-12-14T12:31:31;11.30;;;6.13;;
62861;SDS011;48953;53.110;5.592;2023-12-14T12:33:58;10.52;;;6.10;;
62861;SDS011;48953;53.110;5.592;2023-12-14T12:36:24;12.45;;;6.38;;
62861;SDS011;48953;53.110;5.592;2023-12-14T12:38:50;9.95;;;6.07;;
62861;SDS011;48953;53.110;5.592;2023-12-14T12:41:16;10.13;;;6.00;;
62861;SDS011;48953;53.110;5.592;2023-12-14T12:43:43;11.68;;;6.05;;
62861;SDS011;48953;53.110;5.592;2023-12-14T12:46:09;11.75;;;6.70;;
62861;SDS011;48953;53.110;5.592;2023-12-14T12:48:36;12.63;;;6.53;;
62861;SDS011;48953;53.110;5.592;2023-12-14T12:51:02;8.30;;;5.90;;
62861;SDS011;48953;53.110;5.592;2023-12-14T12:53:28;10.07;;;5.82;;
62861;SDS011;48953;53.110;5.592;2023-12-14T12:55:54;12.63;;;6.53;;
62861;SDS011;48953;53.110;5.592;2023-12-14T12:58:20;12.48;;;6.47;;
62861;SDS011;48953;53.110;5.592;2023-12-14T13:00:46;10.75;;;6.78;;
62861;SDS011;48953;53.110;5.592;2023-12-14T13:03:12;8.73;;;5.90;;
62861;SDS011;48953;53.110;5.592;2023-12-14T13:05:38;12.10;;;7.55;;
62861;SDS011;48953;53.110;5.592;2023-12-14T13:08:04;13.10;;;6.93;;
62861;SDS011;48953;53.110;5.592;2023-12-14T13:10:30;12.10;;;7.15;;
62861;SDS011;48953;53.110;5.592;2023-12-14T13:12:56;14.48;;;7.53;;
62861;SDS011;48953;53.110;5.592;2023-12-14T13:15:22;12.95;;;7.32;;
62861;SDS011;48953;53.110;5.592;2023-12-14T13:17:53;12.48;;;6.95;;
62861;SDS011;48953;53.110;5.592;2023-12-14T13:20:19;10.57;;;6.57;;
62861;SDS011;48953;53.110;5.592;2023-12-14T13:22:45;11.95;;;6.32;;
62861;SDS011;48953;53.110;5.592;2023-12-14T13:25:11;14.43;;;6.97;;
62861;SDS011;48953;53.110;5.592;2023-12-14T13:27:38;10.90;;;6.68;;
62861;SDS011;48953;53.110;5.592;2023-12-14T13:30:04;13.43;;;7.07;;
62861;SDS011;48953;53.110;5.592;2023-12-14T13:32:31;14.88;;;7.15;;
62861;SDS011;48953;53.110;5.592;2023-12-14T13:34:57;12.38;;;7.00;;
62861;SDS011;48953;53.110;5.592;2023-12-14T13:37:23;13.55;;;7.18;;
62861;SDS011;48953;53.110;5.592;2023-12-14T13:39:49;14.75;;;7.78;;
62861;SDS011;48953;53.110;5.592;2023-12-14T13:42:15;16.30;;;7.60;;
62861;SDS011;48953;53.110;5.592;2023-12-14T13:44:41;15.68;;;7.43;;
62861;SDS011;48953;53.110;5.592;2023-12-14T13:47:07;12.57;;;7.13;;
62861;SDS011;48953;53.110;5.592;2023-12-14T13:49:33;13.82;;;6.78;;
62861;SDS011;48953;53.110;5.592;2023-12-14T13:51:59;13.02;;;6.60;;
62861;SDS011;48953;53.110;5.592;2023-12-14T13:54:25;15.70;;;8.25;;
62861;SDS011;48953;53.110;5.592;2023-12-14T13:56:51;15.48;;;7.68;;
62861;SDS011;48953;53.110;5.592;2023-12-14T13:59:18;13.57;;;7.35;;
62861;SDS011;48953;53.110;5.592;2023-12-14T14:01:44;16.02;;;8.00;;
62861;SDS011;48953;53.110;5.592;2023-12-14T14:04:10;15.57;;;8.00;;
62861;SDS011;48953;53.110;5.592;2023-12-14T14:06:37;14.18;;;7.22;;
62861;SDS011;48953;53.110;5.592;2023-12-14T14:09:03;12.93;;;7.47;;
62861;SDS011;48953;53.110;5.592;2023-12-14T14:11:29;14.82;;;6.88;;
62861;SDS011;48953;53.110;5.592;2023-12-14T14:13:55;13.82;;;6.90;;
62861;SDS011;48953;53.110;5.592;2023-12-14T14:16:21;15.75;;;7.90;;
62861;SDS011;48953;53.110;5.592;2023-12-14T14:18:47;15.43;;;8.55;;
62861;SDS011;48953;53.110;5.592;2023-12-14T14:21:13;15.90;;;8.18;;
62861;SDS011;48953;53.110;5.592;2023-12-14T14:23:39;17.15;;;8.57;;
62861;SDS011;48953;53.110;5.592;2023-12-14T14:26:05;16.80;;;8.95;;
62861;SDS011;48953;53.110;5.592;2023-12-14T14:28:31;14.85;;;8.23;;
62861;SDS011;48953;53.110;5.592;2023-12-14T14:30:58;17.67;;;8.48;;
62861;SDS011;48953;53.110;5.592;2023-12-14T14:33:24;18.90;;;8.13;;
62861;SDS011;48953;53.110;5.592;2023-12-14T14:35:51;16.70;;;7.72;;